Time;durP1;ratioP1;P1;durP2;ratioP2;P2;SDS_P1;SDS_P2;PMS_P1;PMS_P2;Temp;Humidity;BMP_temperature;BMP_pressure;BME280_temperature;BME280_humidity;BME280_pressure;Samples;Min_cycle;Max_cycle;Signal;HPM_P1;HPM_P2
2021/10/01 00:01:43;;;;;;;8.52;2.13;;;12.90;99.90;;;;;;5120902;27;20470;-85
2021/10/01 00:04:22;;;;;;;14.30;1.88;;;13.00;99.90;;;;;;5115352;27;20115;-85
2021/10/01 00:07:23;;;;;;;;;;;;;;;;;;;;;
2021/10/01 00:10:14;;;;;;;5.75;1.60;;;13.00;99.90;;;;;;5128920;27;20043;-83
2021/10/01 00:13:31;;;;;;;5.25;1.38;;;12.90;99.90;;;;;;5149116;27;20397;-84
2021/10/01 00:16:06;;;;;;;7.93;1.88;;;12.90;99.90;;;;;;5111291;27;20368;-83
2021/10/01 00:18:32;;;;;;;10.60;1.80;;;13.10;99.90;;;;;;5093223;27;20087;-84
2021/10/01 00:21:03;;;;;;;9.95;2.30;;;12.90;99.90;;;;;;5103020;27;20140;-84
2021/10/01 00:23:37;;;;;;;7.45;1.67;;;12.80;99.90;;;;;;5111351;27;20100;-83
2021/10/01 00:26:07;;;;;;;10.57;2.00;;;12.80;99.90;;;;;;5111037;27;20507;-84
2021/10/01 00:28:32;;;;;;;7.32;1.85;;;12.80;99.90;;;;;;5131353;27;20125;-85
2021/10/01 00:30:58;;;;;;;8.52;1.92;;;12.70;99.90;;;;;;5131161;27;20122;-84
2021/10/01 00:33:24;;;;;;;9.77;1.70;;;12.70;99.90;;;;;;5131153;27;20043;-85
2021/10/01 00:35:49;;;;;;;8.35;1.80;;;12.60;99.90;;;;;;5112599;27;20057;-84
2021/10/01 00:38:15;;;;;;;4.85;1.60;;;12.50;99.90;;;;;;5131302;27;20043;-84
2021/10/01 00:40:41;;;;;;;8.73;1.85;;;12.50;99.90;;;;;;5116375;27;20031;-84
2021/10/01 00:43:07;;;;;;;6.93;1.67;;;12.60;99.90;;;;;;5104679;27;20070;-85
2021/10/01 00:45:33;;;;;;;8.73;1.88;;;12.50;99.90;;;;;;5134497;27;20140;-85
2021/10/01 00:47:59;;;;;;;6.97;1.48;;;12.40;99.90;;;;;;5137903;27;20031;-84
2021/10/01 00:50:24;;;;;;;11.00;2.08;;;12.40;99.90;;;;;;5119902;27;20041;-85
2021/10/01 00:52:50;;;;;;;11.05;1.80;;;12.30;99.90;;;;;;5117352;27;20047;-84
2021/10/01 00:55:17;;;;;;;7.63;1.75;;;12.30;99.90;;;;;;5124176;27;20031;-85
2021/10/01 00:57:42;;;;;;;10.15;1.77;;;12.20;99.90;;;;;;5139254;27;20034;-85
2021/10/01 01:00:20;;;;;;;12.52;1.50;;;12.20;99.90;;;;;;5127015;27;20125;-85
2021/10/01 01:02:46;;;;;;;4.35;1.30;;;12.20;99.90;;;;;;5129022;27;20042;-85
2021/10/01 01:05:12;;;;;;;5.72;1.98;;;12.20;99.90;;;;;;5099969;27;20031;-85
2021/10/01 01:07:57;;;;;;;10.90;1.70;;;12.20;99.90;;;;;;5121281;27;20377;-85
2021/10/01 01:10:54;;;;;;;7.63;1.88;;;12.20;99.90;;;;;;5103585;27;20034;-85
2021/10/01 01:13:49;;;;;;;6.30;1.70;;;12.20;99.90;;;;;;5134134;27;20050;-85
2021/10/01 01:16:21;;;;;;;11.48;2.45;;;12.10;99.90;;;;;;5127047;27;20035;-85
2021/10/01 01:18:49;;;;;;;5.38;1.88;;;12.10;99.90;;;;;;5117795;27;20684;-85
2021/10/01 01:21:43;;;;;;;8.05;1.65;;;12.10;99.90;;;;;;5118143;27;20035;-85
2021/10/01 01:24:54;;;;;;;10.57;2.20;;;12.20;99.90;;;;;;5116706;27;20114;-86
2021/10/01 01:27:59;;;;;;;6.07;1.65;;;12.20;99.90;;;;;;5090386;27;20049;-87
2021/10/01 01:30:35;;;;;;;5.67;1.50;;;12.20;99.90;;;;;;5060001;28;20137;-85
2021/10/01 01:33:02;;;;;;;7.25;2.25;;;12.20;99.90;;;;;;5048588;28;20049;-85
2021/10/01 01:35:34;;;;;;;9.50;1.80;;;12.30;99.90;;;;;;5072022;28;20048;-86
2021/10/01 01:38:05;;;;;;;7.32;2.05;;;12.30;99.90;;;;;;5071846;28;20039;-85
2021/10/01 01:40:33;;;;;;;7.38;2.05;;;12.30;99.90;;;;;;5068260;28;20039;-85
2021/10/01 01:43:03;;;;;;;7.40;1.58;;;12.30;99.90;;;;;;5068105;28;20131;-85
2021/10/01 01:45:29;;;;;;;7.47;1.63;;;12.30;99.90;;;;;;5049525;28;20036;-84
2021/10/01 01:47:56;;;;;;;5.88;1.50;;;12.40;99.90;;;;;;5066354;28;20151;-84
2021/10/01 01:50:23;;;;;;;8.25;2.20;;;12.40;99.90;;;;;;5061300;28;20593;-84
2021/10/01 01:52:51;;;;;;;4.97;1.77;;;12.40;99.90;;;;;;5067086;28;20071;-85
2021/10/01 01:55:16;;;;;;;4.25;1.60;;;12.40;99.90;;;;;;5058745;28;21139;-85
2021/10/01 01:57:47;;;;;;;7.22;1.65;;;12.40;99.90;;;;;;5066878;28;20093;-85
2021/10/01 02:00:13;;;;;;;6.97;1.50;;;12.50;99.90;;;;;;5071662;28;20139;-85
2021/10/01 02:02:40;;;;;;;8.93;1.80;;;12.50;99.90;;;;;;5052080;28;20047;-85
2021/10/01 02:05:07;;;;;;;7.72;1.55;;;13.00;99.90;;;;;;5060196;27;20036;-85
2021/10/01 02:07:33;;;;;;;8.10;1.58;;;12.50;99.90;;;;;;5134920;27;20034;-85
2021/10/01 02:09:59;;;;;;;8.43;1.73;;;12.50;99.90;;;;;;5128737;27;20432;-84
2021/10/01 02:12:27;;;;;;;8.75;1.88;;;12.60;99.90;;;;;;5113362;27;20464;-84
2021/10/01 02:14:55;;;;;;;11.57;1.85;;;12.60;99.90;;;;;;5119160;27;20117;-84
2021/10/01 02:17:21;;;;;;;6.03;1.80;;;12.60;99.90;;;;;;5135094;27;20058;-84
2021/10/01 02:19:49;;;;;;;6.72;1.70;;;12.60;99.90;;;;;;5134192;27;20073;-84
2021/10/01 02:22:20;;;;;;;10.82;1.83;;;12.60;99.90;;;;;;5134503;27;20046;-84
2021/10/01 02:24:46;;;;;;;4.45;1.52;;;12.60;99.90;;;;;;5135420;27;20046;-84
2021/10/01 02:27:37;;;;;;;5.05;1.73;;;12.60;99.90;;;;;;5135907;27;20068;-85
2021/10/01 02:30:17;;;;;;;7.57;1.85;;;12.60;99.90;;;;;;5135283;27;20039;-85
2021/10/01 02:32:46;;;;;;;7.03;2.22;;;12.60;99.90;;;;;;5126555;27;20408;-85
2021/10/01 02:35:12;;;;;;;6.90;1.80;;;12.70;99.90;;;;;;5133116;27;20043;-84
2021/10/01 02:37:38;;;;;;;5.60;1.58;;;12.70;99.90;;;;;;5115845;27;20039;-84
2021/10/01 02:40:06;;;;;;;13.07;2.55;;;12.70;99.90;;;;;;5118000;27;20054;-84
2021/10/01 02:42:31;;;;;;;6.60;1.80;;;12.70;99.90;;;;;;5134763;27;20035;-84
2021/10/01 02:44:58;;;;;;;8.52;1.80;;;12.70;99.90;;;;;;5134390;27;20038;-84
2021/10/01 02:47:29;;;;;;;7.93;1.50;;;12.70;99.90;;;;;;5133912;27;20456;-85
2021/10/01 02:49:56;;;;;;;8.60;1.80;;;12.70;99.90;;;;;;5117837;27;20094;-84
2021/10/01 02:52:30;;;;;;;9.98;1.88;;;12.70;99.90;;;;;;5127561;27;20035;-84
2021/10/01 02:55:08;;;;;;;6.88;1.50;;;12.70;99.90;;;;;;5113348;27;20074;-85
2021/10/01 02:57:50;;;;;;;6.05;1.65;;;12.70;99.90;;;;;;5133195;27;20050;-85
2021/10/01 03:00:16;;;;;;;7.70;1.85;;;12.70;99.90;;;;;;5133540;27;20484;-85
2021/10/01 03:02:44;;;;;;;5.28;1.48;;;12.70;99.90;;;;;;5125418;27;20118;-85
2021/10/01 03:05:12;;;;;;;6.65;1.58;;;12.70;99.90;;;;;;5106270;27;20136;-85
2021/10/01 03:07:41;;;;;;;9.10;1.35;;;12.70;99.90;;;;;;5111415;27;20504;-85
2021/10/01 03:10:10;;;;;;;7.38;1.90;;;12.70;99.90;;;;;;5106069;27;20045;-85
2021/10/01 03:12:37;;;;;;;8.02;2.00;;;12.70;99.90;;;;;;5138828;27;20038;-84
2021/10/01 03:15:04;;;;;;;9.13;1.92;;;12.70;99.90;;;;;;5116156;27;20393;-84
2021/10/01 03:17:32;;;;;;;6.60;1.58;;;12.50;99.90;;;;;;5123117;27;20069;-84
2021/10/01 03:19:58;;;;;;;9.93;1.80;;;12.40;99.90;;;;;;5124568;27;20039;-85
2021/10/01 03:22:31;;;;;;;6.88;1.75;;;12.60;99.90;;;;;;5112403;27;20434;-84
2021/10/01 03:24:58;;;;;;;8.13;1.73;;;12.40;99.90;;;;;;5112265;27;20115;-84
2021/10/01 03:28:21;;;;;;;9.82;1.92;;;12.40;99.90;;;;;;5114081;27;20043;-85
2021/10/01 03:30:47;;;;;;;8.63;1.75;;;12.30;99.90;;;;;;5102294;27;20122;-85
2021/10/01 03:33:13;;;;;;;9.00;2.17;;;12.40;99.90;;;;;;5117918;27;20446;-85
2021/10/01 03:35:41;;;;;;;8.88;1.88;;;12.30;99.90;;;;;;5114322;27;20038;-84
2021/10/01 03:38:10;;;;;;;11.60;1.80;;;12.30;99.90;;;;;;5113966;27;20596;-85
2021/10/01 03:40:36;;;;;;;4.65;1.65;;;12.30;99.90;;;;;;5128996;27;20039;-84
2021/10/01 03:43:24;;;;;;;9.80;2.15;;;12.30;99.90;;;;;;5134376;27;20037;-85
2021/10/01 03:45:50;;;;;;;6.95;1.75;;;12.20;99.90;;;;;;5128731;27;20038;-84
2021/10/01 03:48:16;;;;;;;5.57;1.70;;;12.30;99.90;;;;;;5127557;28;20405;-84
2021/10/01 03:50:42;;;;;;;7.50;1.88;;;12.30;99.90;;;;;;5131341;27;20043;-84
2021/10/01 03:53:09;;;;;;;7.57;1.80;;;12.30;99.90;;;;;;5133753;27;20034;-85
2021/10/01 03:55:35;;;;;;;8.30;2.28;;;12.30;99.90;;;;;;5132222;27;20505;-84
2021/10/01 03:58:01;;;;;;;7.60;1.95;;;12.30;99.90;;;;;;5130738;27;20058;-84
2021/10/01 04:00:27;;;;;;;8.35;2.00;;;12.30;99.90;;;;;;5131299;27;20043;-84
2021/10/01 04:02:53;;;;;;;7.65;1.67;;;12.30;99.90;;;;;;5116022;27;20038;-83
2021/10/01 04:05:19;;;;;;;7.47;1.63;;;12.30;99.90;;;;;;5115503;27;20345;-84
2021/10/01 04:07:45;;;;;;;11.18;1.70;;;12.30;99.90;;;;;;5125830;27;20034;-84
2021/10/01 04:10:17;;;;;;;7.65;1.58;;;12.30;99.90;;;;;;5114326;27;20067;-85
2021/10/01 04:12:46;;;;;;;11.73;2.05;;;12.30;99.90;;;;;;5115972;27;20043;-86
2021/10/01 04:15:12;;;;;;;7.78;1.73;;;12.30;99.90;;;;;;5135245;27;20049;-85
2021/10/01 04:17:38;;;;;;;10.45;1.90;;;12.50;99.90;;;;;;5129766;27;20043;-85
2021/10/01 04:20:05;;;;;;;7.07;1.80;;;12.30;99.90;;;;;;5111389;27;20066;-85
2021/10/01 04:22:31;;;;;;;7.75;1.75;;;12.30;99.90;;;;;;5120438;27;20500;-84
2021/10/01 04:24:56;;;;;;;7.43;1.77;;;12.30;99.90;;;;;;5116693;27;20045;-84
2021/10/01 04:27:22;;;;;;;10.93;1.95;;;12.30;99.90;;;;;;5108672;27;20134;-84
2021/10/01 04:29:48;;;;;;;6.82;1.90;;;12.30;99.90;;;;;;5137587;27;20034;-84
2021/10/01 04:32:13;;;;;;;6.30;1.40;;;12.20;99.90;;;;;;5117700;27;20473;-85
2021/10/01 04:37:23;;;;;;;7.38;1.40;;;12.20;99.90;;;;;;5131553;27;20046;-85
2021/10/01 04:39:49;;;;;;;8.50;1.58;;;12.10;99.90;;;;;;5130568;27;20046;-85
2021/10/01 04:42:15;;;;;;;8.35;1.52;;;12.10;99.90;;;;;;5120547;27;20042;-86
2021/10/01 04:44:40;;;;;;;7.32;1.60;;;12.10;99.90;;;;;;5119235;27;20050;-85
2021/10/01 04:47:06;;;;;;;6.53;1.70;;;12.10;99.90;;;;;;5137041;27;20031;-85
2021/10/01 04:49:31;;;;;;;5.57;1.60;;;12.00;99.90;;;;;;5118699;27;20457;-85
2021/10/01 04:51:57;;;;;;;6.03;1.45;;;12.20;99.90;;;;;;5120299;27;20222;-85
2021/10/01 04:54:23;;;;;;;6.53;1.63;;;12.00;99.90;;;;;;5137208;27;20062;-85
2021/10/01 04:56:48;;;;;;;8.38;1.95;;;12.00;99.90;;;;;;5123359;27;20047;-85
2021/10/01 04:59:14;;;;;;;6.35;1.48;;;11.90;99.90;;;;;;5129435;27;20051;-84
2021/10/01 05:01:40;;;;;;;5.93;1.60;;;11.90;99.90;;;;;;5133367;27;20069;-84
2021/10/01 05:04:07;;;;;;;8.00;1.90;;;12.00;99.90;;;;;;5131737;27;20031;-84
2021/10/01 05:06:32;;;;;;;4.55;1.35;;;11.90;99.90;;;;;;5116370;27;20041;-84
2021/10/01 05:08:58;;;;;;;7.07;1.50;;;11.80;99.90;;;;;;5108226;27;20040;-84
2021/10/01 05:11:24;;;;;;;8.07;1.80;;;11.80;99.90;;;;;;5113851;27;20107;-83
2021/10/01 05:13:49;;;;;;;12.35;1.80;;;11.90;99.90;;;;;;5132198;27;20092;-83
2021/10/01 05:16:15;;;;;;;9.38;2.10;;;11.90;99.90;;;;;;5130521;27;20119;-83
2021/10/01 05:18:41;;;;;;;5.13;1.42;;;11.90;99.90;;;;;;5115466;27;20047;-84
2021/10/01 05:21:06;;;;;;;7.93;1.52;;;11.90;99.90;;;;;;5133895;27;20027;-83
2021/10/01 05:23:32;;;;;;;6.18;1.52;;;12.00;99.90;;;;;;5113765;27;20039;-82
2021/10/01 05:25:58;;;;;;;8.70;1.80;;;12.10;99.90;;;;;;5131071;27;20107;-82
2021/10/01 05:28:42;;;;;;;5.53;1.30;;;11.90;99.90;;;;;;5114720;27;20047;-82
2021/10/01 05:31:08;;;;;;;7.43;1.83;;;11.90;99.90;;;;;;5103093;28;20410;-81
2021/10/01 05:33:34;;;;;;;8.43;1.75;;;11.90;99.90;;;;;;5129064;27;20047;-82
2021/10/01 05:36:00;;;;;;;5.97;1.60;;;11.90;99.90;;;;;;5102421;27;20134;-82
2021/10/01 05:38:26;;;;;;;5.20;1.45;;;11.90;99.90;;;;;;5113372;27;20419;-82
2021/10/01 05:40:52;;;;;;;4.10;1.60;;;11.90;99.90;;;;;;5128200;27;20106;-82
2021/10/01 05:43:24;;;;;;;3.90;1.75;;;11.80;99.90;;;;;;5130837;27;20037;-83
2021/10/01 05:45:53;;;;;;;5.20;1.33;;;11.80;99.90;;;;;;5110184;28;20039;-82
2021/10/01 05:48:19;;;;;;;8.52;1.50;;;11.90;99.90;;;;;;5133290;27;20450;-82
2021/10/01 05:50:52;;;;;;;7.25;1.77;;;11.90;99.90;;;;;;5096876;27;20124;-82
2021/10/01 05:56:08;;;;;;;7.80;1.48;;;11.90;99.90;;;;;;5130940;27;20035;-82
2021/10/01 05:58:35;;;;;;;4.75;1.35;;;11.90;99.90;;;;;;5102030;28;20051;-84
2021/10/01 06:01:01;;;;;;;5.82;1.60;;;12.00;99.90;;;;;;5113710;27;20383;-82
2021/10/01 06:03:28;;;;;;;8.00;1.38;;;12.00;99.90;;;;;;5131238;27;20557;-82
2021/10/01 06:05:54;;;;;;;5.55;1.38;;;12.00;99.90;;;;;;5130246;27;20070;-82
2021/10/01 06:08:20;;;;;;;5.35;1.23;;;12.20;99.90;;;;;;5129724;27;20062;-84
2021/10/01 06:10:46;;;;;;;6.03;1.40;;;12.10;99.90;;;;;;5129415;27;20031;-82
2021/10/01 06:13:12;;;;;;;8.40;1.70;;;12.10;99.90;;;;;;5131147;27;20401;-83
2021/10/01 06:15:37;;;;;;;9.25;1.67;;;12.10;99.90;;;;;;5130890;27;20393;-82
2021/10/01 06:18:03;;;;;;;12.35;1.70;;;12.10;99.90;;;;;;5129363;27;20035;-83
2021/10/01 06:20:29;;;;;;;10.40;1.90;;;12.20;99.90;;;;;;5121214;27;20075;-80
2021/10/01 06:22:54;;;;;;;8.30;1.58;;;12.20;99.90;;;;;;5113423;27;20436;-79
2021/10/01 06:25:22;;;;;;;10.35;1.50;;;12.30;99.90;;;;;;5111299;27;20135;-80
2021/10/01 06:28:06;;;;;;;7.38;1.50;;;12.30;99.90;;;;;;5115267;27;20047;-82
2021/10/01 06:30:32;;;;;;;6.72;1.45;;;12.40;99.90;;;;;;5131076;27;20031;-82
2021/10/01 06:32:59;;;;;;;7.65;1.55;;;12.40;99.90;;;;;;5113507;27;20075;-82
2021/10/01 06:35:25;;;;;;;5.90;1.38;;;12.40;99.90;;;;;;5130415;27;20046;-80
2021/10/01 06:37:50;;;;;;;8.75;1.63;;;12.50;99.90;;;;;;5132145;27;20046;-80
2021/10/01 06:40:16;;;;;;;6.88;1.55;;;12.50;99.90;;;;;;5124013;27;20027;-82
2021/10/01 06:42:47;;;;;;;4.13;1.60;;;12.50;99.90;;;;;;5098408;28;20506;-82
2021/10/01 06:45:17;;;;;;;4.25;1.17;;;12.50;99.90;;;;;;5108900;27;20058;-82
2021/10/01 06:47:50;;;;;;;4.57;1.48;;;12.50;99.90;;;;;;5113316;27;20367;-82
2021/10/01 08:21:26;;;;;;;5.90;1.60;;;13.70;99.90;;;;;;5144874;27;20050;-85
2021/10/01 08:24:02;;;;;;;7.53;1.30;;;13.70;99.90;;;;;;5128605;27;20042;-84
2021/10/01 08:26:29;;;;;;;7.70;1.50;;;13.70;99.90;;;;;;5115246;27;20034;-84
2021/10/01 08:28:56;;;;;;;5.53;1.38;;;13.80;99.90;;;;;;5118936;27;20054;-85
2021/10/01 08:31:26;;;;;;;7.85;1.80;;;13.90;99.90;;;;;;5118417;27;20043;-85
2021/10/01 08:33:57;;;;;;;6.63;1.23;;;14.00;99.90;;;;;;5135326;27;20050;-85
2021/10/01 08:36:26;;;;;;;6.57;1.33;;;14.00;99.90;;;;;;5137030;27;20091;-82
2021/10/01 08:38:52;;;;;;;9.52;1.38;;;14.30;99.90;;;;;;5120344;27;20043;-82
2021/10/01 08:41:19;;;;;;;5.90;1.15;;;14.40;99.90;;;;;;5120928;27;20068;-83
2021/10/01 08:43:46;;;;;;;7.82;1.38;;;14.40;99.90;;;;;;5137530;27;20038;-82
2021/10/01 08:46:34;;;;;;;11.18;1.55;;;14.60;99.90;;;;;;5126892;27;20375;-84
2021/10/01 08:53:24;;;;;;;7.10;1.45;;;14.90;99.90;;;;;;5011546;28;20097;-84
2021/10/01 08:56:21;;;;;;;10.75;1.52;;;15.20;99.90;;;;;;4995769;28;20081;-84
2021/10/01 08:59:04;;;;;;;5.82;1.40;;;15.30;99.90;;;;;;4942721;28;20083;-86
2021/10/01 09:01:30;;;;;;;3.55;1.40;;;15.40;99.90;;;;;;4936748;29;20087;-83
2021/10/01 09:04:25;;;;;;;3.95;1.15;;;15.40;99.90;;;;;;4918652;29;20048;-83
2021/10/01 09:06:59;;;;;;;4.85;1.45;;;15.50;99.90;;;;;;4902840;29;20491;-84
2021/10/01 09:09:43;;;;;;;5.90;1.38;;;15.60;99.90;;;;;;4900022;29;20098;-84
2021/10/01 09:12:17;;;;;;;4.03;1.23;;;15.80;99.90;;;;;;4888614;29;20052;-83
2021/10/01 09:14:52;;;;;;;3.90;1.30;;;15.90;99.90;;;;;;4948105;29;20103;-83
2021/10/01 09:17:26;;;;;;;6.90;1.40;;;16.00;99.90;;;;;;4951735;28;20047;-83
2021/10/01 09:19:55;;;;;;;8.93;1.45;;;16.00;99.90;;;;;;4955824;28;20085;-83
2021/10/01 09:22:35;;;;;;;7.28;1.27;;;16.00;99.90;;;;;;4953315;28;20051;-84
2021/10/01 09:25:45;;;;;;;7.47;1.23;;;16.10;99.90;;;;;;4940539;28;20510;-83
2021/10/01 09:28:14;;;;;;;7.85;1.75;;;16.10;99.90;;;;;;4903562;29;20067;-85
2021/10/01 09:31:36;;;;;;;8.70;1.30;;;16.20;99.90;;;;;;4926371;28;20058;-84
2021/10/01 09:34:12;;;;;;;7.28;1.38;;;16.20;99.90;;;;;;4952461;28;20106;-83
2021/10/01 09:36:39;;;;;;;7.50;1.67;;;16.10;99.90;;;;;;4996585;28;20186;-84
2021/10/01 09:39:05;;;;;;;6.85;1.25;;;16.10;99.90;;;;;;5024193;28;20220;-82
2021/10/01 09:41:35;;;;;;;7.18;1.40;;;16.10;99.90;;;;;;5011968;28;20367;-82
2021/10/01 09:44:13;;;;;;;4.47;1.42;;;16.00;99.90;;;;;;5029277;28;20045;-83
2021/10/01 09:46:45;;;;;;;7.57;1.48;;;16.00;99.90;;;;;;4997422;28;20049;-87
2021/10/01 09:49:14;;;;;;;11.23;1.45;;;15.90;99.90;;;;;;5029502;28;20471;-86
2021/10/01 09:51:54;;;;;;;6.43;1.40;;;16.00;99.90;;;;;;5008347;28;20086;-86
2021/10/01 09:54:37;;;;;;;5.65;1.75;;;15.90;99.90;;;;;;4997213;28;20129;-85
2021/10/01 09:57:18;;;;;;;6.28;1.40;;;15.80;99.90;;;;;;5012797;28;20104;-90
2021/10/01 10:00:01;;;;;;;5.63;1.23;;;15.90;99.90;;;;;;4996569;28;20085;-89
2021/10/01 10:02:39;;;;;;;16.40;1.80;;;16.00;99.90;;;;;;5007679;27;20203;-86
2021/10/01 10:05:08;;;;;;;6.85;1.35;;;16.00;99.90;;;;;;5117900;27;20117;-89
2021/10/01 10:07:38;;;;;;;5.00;1.20;;;16.10;99.90;;;;;;5112405;27;20041;-88
2021/10/01 10:10:08;;;;;;;6.68;1.70;;;16.20;99.90;;;;;;5136535;27;20043;-88
2021/10/01 10:12:34;;;;;;;5.90;1.42;;;16.30;99.90;;;;;;5109955;27;20061;-82
2021/10/01 10:15:02;;;;;;;3.75;1.20;;;16.40;99.90;;;;;;5118117;27;20414;-85
2021/10/01 10:17:50;;;;;;;4.35;1.20;;;16.30;99.90;;;;;;5125929;27;20046;-85
2021/10/01 10:23:44;;;;;;;3.97;1.30;;;16.30;99.90;;;;;;5127752;27;20053;-83
2021/10/01 10:26:11;;;;;;;4.30;1.25;;;16.40;99.90;;;;;;5155498;27;20030;-86
2021/10/01 10:28:39;;;;;;;8.68;1.40;;;16.30;99.90;;;;;;5118399;27;20047;-85
2021/10/01 10:31:08;;;;;;;8.02;1.30;;;16.30;99.90;;;;;;5119110;27;20058;-84
2021/10/01 10:33:46;;;;;;;4.68;1.42;;;16.30;99.90;;;;;;5116778;27;20050;-85
2021/10/01 10:36:47;;;;;;;8.32;1.40;;;16.50;99.90;;;;;;5114663;27;20059;-84
2021/10/01 10:39:14;;;;;;;6.63;1.40;;;16.50;99.90;;;;;;5115660;27;20047;-86
2021/10/01 10:42:03;;;;;;;6.47;1.30;;;16.60;99.90;;;;;;5115453;27;20047;-84
2021/10/01 10:45:08;;;;;;;7.07;1.58;;;16.80;99.90;;;;;;5121218;27;20034;-87
2021/10/01 10:48:12;;;;;;;4.72;1.30;;;16.60;99.90;;;;;;5123961;27;20354;-85
2021/10/01 10:50:56;;;;;;;5.72;1.38;;;16.70;99.90;;;;;;5121959;27;20077;-86
2021/10/01 10:54:06;;;;;;;10.02;1.70;;;16.60;99.90;;;;;;5119129;27;20681;-86
2021/10/01 11:04:38;;;;;;;3.78;1.20;;;17.30;99.90;;;;;;5011016;28;20065;-85
2021/10/01 11:11:45;;;;;;;4.78;1.10;;;17.30;99.90;;;;;;4957987;28;20181;-86
2021/10/01 11:14:28;;;;;;;6.07;1.03;;;17.50;99.90;;;;;;4941223;29;20391;-85
2021/10/01 11:16:54;;;;;;;3.65;1.10;;;17.70;99.90;;;;;;4926862;29;20354;-84
2021/10/01 11:19:41;;;;;;;5.55;1.40;;;17.70;99.90;;;;;;4915686;29;20123;-84
2021/10/01 11:22:32;;;;;;;6.05;1.20;;;17.80;99.90;;;;;;4914629;29;20131;-78
2021/10/01 11:25:22;;;;;;;5.93;1.20;;;18.00;99.90;;;;;;4913965;29;20052;-80
2021/10/01 11:28:20;;;;;;;8.38;1.40;;;17.90;99.90;;;;;;4875225;29;20049;-81
2021/10/01 11:35:16;;;;;;;;;;;;;;;;;;;;;
2021/10/01 11:37:54;;;;;;;5.03;1.30;;;17.80;99.90;;;;;;4899066;29;20580;-81
2021/10/01 11:40:48;;;;;;;6.70;1.40;;;17.90;99.90;;;;;;4880419;29;20060;-82
2021/10/01 11:44:05;;;;;;;3.95;1.17;;;18.00;99.90;;;;;;4891996;29;20045;-82
2021/10/01 11:46:49;;;;;;;5.20;1.10;;;17.90;99.90;;;;;;4957967;28;20097;-83
2021/10/01 11:49:36;;;;;;;5.60;1.23;;;17.80;99.90;;;;;;4985247;28;20099;-82
2021/10/01 11:52:10;;;;;;;4.55;1.25;;;17.70;99.90;;;;;;4985525;28;20046;-82
2021/10/01 11:54:36;;;;;;;4.38;1.40;;;17.70;99.90;;;;;;4971940;28;20050;-81
2021/10/01 11:57:06;;;;;;;9.55;1.88;;;17.40;99.90;;;;;;4958198;28;20042;-82
2021/10/01 12:00:25;;;;;;;6.30;1.25;;;17.40;99.90;;;;;;4959567;28;20054;-83
2021/10/01 12:02:58;;;;;;;6.22;1.38;;;17.40;99.90;;;;;;4994198;28;20045;-83
2021/10/01 12:05:39;;;;;;;6.15;1.30;;;17.40;99.90;;;;;;4994031;28;20117;-84
2021/10/01 12:16:25;;;;;;;10.82;1.20;;;16.80;99.90;;;;;;5005973;28;20089;-81
2021/10/01 12:20:01;;;;;;;6.65;1.60;;;16.50;99.90;;;;;;4988656;28;20039;-84
2021/10/01 12:22:58;;;;;;;5.63;1.55;;;16.40;99.90;;;;;;4912033;29;20074;-84
2021/10/01 12:25:26;;;;;;;7.63;1.67;;;16.30;99.90;;;;;;4924807;29;20129;-82
2021/10/01 12:35:12;;;;;;;5.88;1.45;;;15.30;99.90;;;;;;4871518;29;20044;-87
2021/10/01 12:38:03;;;;;;;6.35;1.58;;;15.00;99.90;;;;;;4819203;29;20042;-83
2021/10/01 12:40:41;;;;;;;3.25;1.35;;;14.90;99.90;;;;;;4802837;29;20122;-87
2021/10/01 12:43:12;;;;;;;6.43;1.73;;;14.70;99.90;;;;;;4804323;29;20145;-85
2021/10/01 12:45:39;;;;;;;9.73;2.20;;;14.60;99.90;;;;;;4797616;29;20061;-84
2021/10/01 12:48:19;;;;;;;8.85;1.67;;;14.50;99.90;;;;;;4821539;29;20062;-86
2021/10/01 12:51:23;;;;;;;8.30;1.70;;;14.30;99.90;;;;;;4793735;29;20042;-84
2021/10/01 12:55:04;;;;;;;7.45;1.75;;;14.20;99.90;;;;;;4794260;29;20074;-82
2021/10/01 13:07:32;;;;;;;7.82;1.80;;;14.10;99.90;;;;;;4559890;26;20132;-85
2021/10/01 13:10:17;;;;;;;10.13;2.42;;;14.10;99.90;;;;;;5033303;28;20045;-87
2021/10/01 13:16:25;;;;;;;8.32;2.40;;;13.90;99.90;;;;;;5033929;28;20095;-85
2021/10/01 13:21:57;;;;;;;8.30;2.60;;;14.00;99.90;;;;;;5007257;28;21371;-85
2021/10/01 13:24:30;;;;;;;7.55;2.60;;;13.90;99.90;;;;;;5007645;28;20042;-87
2021/10/01 13:26:55;;;;;;;7.60;2.80;;;14.00;99.90;;;;;;5007455;28;20049;-86
2021/10/01 13:29:21;;;;;;;7.70;2.78;;;13.90;99.90;;;;;;4990962;28;20092;-85
2021/10/01 13:31:52;;;;;;;11.20;2.60;;;13.90;99.90;;;;;;5004756;28;20465;-86
2021/10/01 13:34:18;;;;;;;10.80;3.03;;;13.90;99.90;;;;;;5009600;28;20053;-82
2021/10/01 13:36:44;;;;;;;9.27;2.75;;;13.80;99.90;;;;;;4993630;28;20344;-83
2021/10/01 13:39:10;;;;;;;11.13;2.78;;;13.90;99.90;;;;;;5006806;28;20054;-82
2021/10/01 13:41:38;;;;;;;7.85;2.78;;;13.90;99.90;;;;;;4993472;28;20038;-81
2021/10/01 13:44:04;;;;;;;8.82;3.03;;;13.90;99.90;;;;;;4993943;28;20050;-81
2021/10/01 13:46:30;;;;;;;9.27;3.33;;;13.90;99.90;;;;;;4991345;28;20056;-86
2021/10/01 13:48:56;;;;;;;9.55;3.20;;;13.90;99.90;;;;;;4987665;28;20101;-87
2021/10/01 13:51:22;;;;;;;11.70;4.05;;;14.00;99.90;;;;;;4972099;28;20477;-87
2021/10/01 13:53:48;;;;;;;11.98;4.32;;;14.00;99.90;;;;;;4984321;28;20366;-88
2021/10/01 13:56:14;;;;;;;10.65;3.97;;;14.00;99.90;;;;;;4972178;28;20042;-85
2021/10/01 13:59:17;;;;;;;10.85;3.58;;;14.10;99.90;;;;;;5021380;28;20053;-86
2021/10/01 14:01:42;;;;;;;8.35;2.95;;;14.20;99.90;;;;;;5016488;28;20051;-88
2021/10/01 14:04:08;;;;;;;11.57;3.25;;;14.20;99.90;;;;;;5024372;28;20119;-87
2021/10/01 14:06:34;;;;;;;10.38;3.20;;;14.30;99.90;;;;;;5052665;28;20048;-85
2021/10/01 14:08:59;;;;;;;11.80;3.25;;;14.30;99.90;;;;;;5035727;28;20455;-85
2021/10/01 14:11:25;;;;;;;9.20;3.08;;;14.50;99.90;;;;;;5052685;28;20052;-85
2021/10/01 14:13:51;;;;;;;11.90;3.42;;;14.50;99.90;;;;;;5052779;28;20080;-86
2021/10/01 14:16:17;;;;;;;9.35;3.10;;;14.60;99.90;;;;;;5053184;28;20052;-85
2021/10/01 14:18:42;;;;;;;9.63;3.60;;;14.60;99.90;;;;;;5065932;28;20049;-86
2021/10/01 14:21:09;;;;;;;10.93;3.00;;;14.60;99.90;;;;;;5049063;28;20480;-86
2021/10/01 14:23:34;;;;;;;8.23;3.15;;;14.60;99.90;;;;;;5069863;28;20087;-86
2021/10/01 14:26:00;;;;;;;8.75;2.90;;;14.60;99.90;;;;;;5052783;28;20068;-86
2021/10/01 14:28:55;;;;;;;9.80;3.20;;;14.50;99.90;;;;;;5068364;28;20036;-87
2021/10/01 14:31:33;;;;;;;8.80;3.03;;;14.70;99.90;;;;;;5049408;28;20040;-80
2021/10/01 14:34:02;;;;;;;7.22;2.65;;;14.80;99.90;;;;;;5057951;28;20039;-80
2021/10/01 14:36:31;;;;;;;12.95;3.03;;;14.80;99.90;;;;;;5051506;28;20412;-86
2021/10/01 14:38:57;;;;;;;11.88;2.72;;;14.80;99.90;;;;;;5027697;28;20385;-85
2021/10/01 14:41:25;;;;;;;9.07;2.55;;;14.70;99.90;;;;;;5009058;28;20076;-86
2021/10/01 14:44:10;;;;;;;7.53;2.38;;;14.60;99.90;;;;;;5028262;28;20199;-84
2021/10/01 14:46:41;;;;;;;7.53;2.90;;;14.60;99.90;;;;;;5008021;28;20049;-84
2021/10/01 14:49:25;;;;;;;12.05;2.13;;;14.60;99.90;;;;;;4992439;28;20343;-83
2021/10/01 14:52:10;;;;;;;;;;;;;;;;;;;;;
2021/10/01 14:54:40;;;;;;;9.30;2.58;;;14.60;99.90;;;;;;5009840;28;20464;-83
2021/10/01 14:57:24;;;;;;;7.65;2.50;;;14.50;99.90;;;;;;5011702;28;20091;-85
2021/10/01 15:00:07;;;;;;;10.05;2.45;;;14.50;99.90;;;;;;5027367;28;20045;-85
2021/10/01 15:02:38;;;;;;;10.82;2.03;;;14.50;99.90;;;;;;4977009;28;20057;-85
2021/10/01 15:05:07;;;;;;;6.32;2.10;;;14.40;99.90;;;;;;4987872;28;20128;-84
2021/10/01 15:07:34;;;;;;;8.07;2.17;;;14.60;99.90;;;;;;4986816;28;20417;-82
2021/10/01 15:10:10;;;;;;;8.85;2.00;;;14.50;99.90;;;;;;4993242;28;20136;-80
2021/10/01 15:12:38;;;;;;;6.25;2.13;;;14.50;99.90;;;;;;5029352;28;20049;-80
2021/10/01 15:15:37;;;;;;;7.35;2.10;;;14.50;99.90;;;;;;5025347;28;20076;-80
2021/10/01 15:18:10;;;;;;;9.45;2.13;;;14.50;99.90;;;;;;5029790;28;20041;-84
2021/10/01 15:20:39;;;;;;;6.13;2.30;;;14.50;99.90;;;;;;5028989;28;20076;-83
2021/10/01 15:23:37;;;;;;;9.77;2.13;;;14.50;99.90;;;;;;5045134;28;20059;-83
2021/10/01 15:26:10;;;;;;;7.45;2.05;;;14.50;99.90;;;;;;5030815;28;20517;-80
2021/10/01 15:28:42;;;;;;;9.60;1.92;;;14.50;99.90;;;;;;5044234;28;20049;-80
2021/10/01 15:31:08;;;;;;;8.23;2.17;;;14.50;99.90;;;;;;5034242;28;20049;-78
2021/10/01 15:33:34;;;;;;;11.48;2.20;;;14.50;99.90;;;;;;5037257;28;20072;-76
2021/10/01 15:36:00;;;;;;;10.02;2.15;;;14.50;99.90;;;;;;5045811;28;20131;-77
2021/10/01 15:38:26;;;;;;;5.68;2.00;;;14.50;99.90;;;;;;5047359;28;20128;-77
2021/10/01 15:40:52;;;;;;;7.38;2.10;;;14.50;99.90;;;;;;5064971;28;20534;-77
2021/10/01 15:43:18;;;;;;;8.55;2.10;;;14.40;99.90;;;;;;5046992;28;20057;-77
2021/10/01 15:45:48;;;;;;;9.85;2.50;;;14.40;99.90;;;;;;5030160;28;20867;-78
2021/10/01 15:48:17;;;;;;;7.88;1.92;;;14.40;99.90;;;;;;5047652;28;20083;-78
2021/10/01 15:50:43;;;;;;;8.10;1.92;;;14.30;99.90;;;;;;5045827;28;20064;-77
2021/10/01 15:53:10;;;;;;;9.00;2.10;;;14.30;99.90;;;;;;5045380;28;20354;-81